Time;durP1;ratioP1;P1;durP2;ratioP2;P2;SDS_P1;SDS_P2;PMS_P1;PMS_P2;Temp;Humidity;BMP_temperature;BMP_pressure;BME280_temperature;BME280_humidity;BME280_pressure;Samples;Min_cycle;Max_cycle;Signal;HPM_P1;HPM_P2
2023/01/16 05:32:13;;;;;;;1.00;0.80;;;7.80;82.00;;;;;;5080619;23;20047;-79
2023/01/16 05:34:39;;;;;;;7.47;1.13;;;7.80;81.60;;;;;;4957419;29;20079;-78
2023/01/16 05:37:04;;;;;;;1.80;1.00;;;7.80;81.60;;;;;;4957544;28;20367;-79
2023/01/16 05:39:30;;;;;;;1.58;0.93;;;7.80;81.70;;;;;;4960514;28;20433;-79
2023/01/16 05:41:56;;;;;;;1.73;1.63;;;7.80;81.90;;;;;;4976651;28;20027;-79
2023/01/16 05:44:21;;;;;;;3.60;1.33;;;7.80;81.80;;;;;;4976576;28;20022;-79
2023/01/16 05:46:47;;;;;;;4.00;1.40;;;7.80;81.50;;;;;;4955860;28;20492;-79
2023/01/16 05:49:13;;;;;;;2.65;1.23;;;7.70;80.80;;;;;;4967253;28;20031;-78
2023/01/16 05:51:38;;;;;;;1.70;1.38;;;7.70;81.10;;;;;;4957179;29;20039;-81
2023/01/16 05:54:04;;;;;;;1.80;1.30;;;7.70;80.90;;;;;;4962486;28;20019;-79
2023/01/16 05:56:30;;;;;;;3.35;1.35;;;7.60;80.70;;;;;;4960436;28;20110;-86
2023/01/16 05:58:57;;;;;;;3.42;1.17;;;7.70;80.80;;;;;;4957424;29;20035;-88
2023/01/16 06:01:22;;;;;;;1.13;1.00;;;7.70;80.60;;;;;;4962559;28;20027;-89
2023/01/16 06:03:48;;;;;;;5.55;1.55;;;7.70;80.50;;;;;;4953155;28;20033;-88
2023/01/16 06:06:13;;;;;;;1.02;0.93;;;7.70;79.90;;;;;;4972147;28;20065;-83
2023/01/16 06:08:42;;;;;;;2.42;1.00;;;7.70;79.50;;;;;;4958065;29;20034;-82
2023/01/16 06:11:08;;;;;;;6.00;1.50;;;7.70;79.00;;;;;;4962835;28;20034;-82
2023/01/16 06:13:33;;;;;;;3.90;1.42;;;7.70;78.80;;;;;;4943481;29;20027;-86
2023/01/16 06:15:59;;;;;;;6.25;1.10;;;7.60;78.40;;;;;;4962038;29;20042;-82
2023/01/16 06:18:25;;;;;;;4.57;1.40;;;7.70;78.60;;;;;;4973167;28;20050;-78
2023/01/16 06:20:51;;;;;;;3.33;1.30;;;7.60;78.50;;;;;;4972629;28;20059;-79
2023/01/16 06:23:17;;;;;;;1.15;1.02;;;7.60;78.90;;;;;;4979872;28;20105;-82
2023/01/16 06:25:46;;;;;;;2.50;1.38;;;7.70;79.20;;;;;;4973254;28;20082;-81
2023/01/16 06:28:12;;;;;;;2.78;2.58;;;7.60;79.30;;;;;;4960675;28;20082;-81
2023/01/16 06:30:38;;;;;;;4.45;1.35;;;7.70;79.60;;;;;;4971333;28;20053;-83
2023/01/16 06:33:03;;;;;;;4.72;1.45;;;7.70;79.70;;;;;;4969036;28;20110;-80
2023/01/16 06:35:29;;;;;;;2.50;1.30;;;7.70;79.00;;;;;;4962114;28;20032;-79
2023/01/16 06:37:54;;;;;;;5.28;1.60;;;7.70;79.00;;;;;;4976510;28;20034;-79
2023/01/16 06:40:20;;;;;;;3.50;1.75;;;7.70;78.90;;;;;;4958324;29;20542;-79
2023/01/16 06:42:46;;;;;;;6.18;2.53;;;7.70;78.70;;;;;;4960466;29;20383;-80
2023/01/16 06:45:11;;;;;;;5.95;1.90;;;7.60;78.80;;;;;;4960383;29;20032;-84
2023/01/16 06:47:37;;;;;;;5.88;2.20;;;7.60;78.60;;;;;;4943369;28;20027;-81
2023/01/16 06:50:03;;;;;;;6.13;1.83;;;7.60;78.50;;;;;;4960455;29;20035;-81
2023/01/16 06:52:29;;;;;;;3.95;2.03;;;7.60;78.30;;;;;;4967587;28;20597;-88
2023/01/16 06:54:56;;;;;;;4.72;1.70;;;7.60;78.00;;;;;;4948081;28;20031;-84
2023/01/16 06:57:22;;;;;;;5.30;1.75;;;7.60;77.60;;;;;;4961312;28;20055;-84
2023/01/16 06:59:50;;;;;;;6.72;1.80;;;7.50;77.50;;;;;;4960354;28;20027;-83
2023/01/16 07:02:15;;;;;;;5.38;1.98;;;7.50;76.90;;;;;;4958883;28;20027;-89
2023/01/16 07:04:41;;;;;;;10.45;2.65;;;7.50;76.40;;;;;;4960027;29;20034;-84
2023/01/16 07:07:06;;;;;;;3.28;1.90;;;7.50;75.10;;;;;;4961104;28;20038;-83
2023/01/16 07:09:32;;;;;;;5.63;1.58;;;7.50;75.60;;;;;;4959739;29;20032;-85
2023/01/16 07:11:58;;;;;;;6.35;2.10;;;7.50;76.00;;;;;;4949993;29;20526;-84
2023/01/16 07:22:49;;;;;;;7.22;2.10;;;7.50;77.10;;;;;;4959834;28;20462;-85
2023/01/16 07:25:32;;;;;;;4.03;1.40;;;7.50;77.40;;;;;;4961090;28;20050;-84
2023/01/16 07:27:57;;;;;;;2.67;1.92;;;7.50;77.60;;;;;;4959797;29;20023;-84
2023/01/16 07:30:23;;;;;;;6.85;1.63;;;7.50;77.50;;;;;;4959423;28;20557;-85
2023/01/16 07:32:49;;;;;;;6.93;1.83;;;7.40;76.60;;;;;;4964411;28;20566;-84
2023/01/16 07:35:15;;;;;;;8.32;2.20;;;7.40;77.00;;;;;;4961793;28;20035;-84
2023/01/16 07:37:42;;;;;;;7.65;1.80;;;7.30;76.20;;;;;;4960926;28;20041;-84
2023/01/16 07:40:08;;;;;;;8.52;1.42;;;7.30;75.00;;;;;;4960097;28;20458;-84
2023/01/16 07:42:34;;;;;;;4.18;1.58;;;7.30;75.00;;;;;;4959926;29;20034;-84
2023/01/16 07:45:00;;;;;;;6.97;1.67;;;7.40;74.40;;;;;;4964455;28;20039;-85
2023/01/16 07:47:25;;;;;;;3.92;1.77;;;7.40;75.00;;;;;;4976784;28;20077;-84
2023/01/16 07:49:51;;;;;;;7.78;1.55;;;7.50;75.20;;;;;;4961797;28;20081;-84
2023/01/16 07:52:17;;;;;;;9.10;1.92;;;7.40;75.40;;;;;;4978677;28;20099;-84
2023/01/16 07:54:43;;;;;;;5.40;1.45;;;7.40;74.80;;;;;;4968569;28;20046;-85
2023/01/16 07:57:08;;;;;;;6.65;2.08;;;7.40;74.70;;;;;;4960015;29;20027;-84
2023/01/16 07:59:34;;;;;;;6.88;1.90;;;7.40;74.20;;;;;;4959772;29;20035;-84
2023/01/16 08:02:01;;;;;;;6.07;1.75;;;7.40;74.00;;;;;;4959186;28;20038;-84
2023/01/16 08:04:27;;;;;;;8.15;1.55;;;7.40;73.70;;;;;;4941516;29;20059;-85
2023/01/16 08:06:53;;;;;;;8.63;1.95;;;7.40;73.70;;;;;;4941928;29;20070;-84
2023/01/16 08:09:18;;;;;;;2.10;1.17;;;7.50;73.40;;;;;;4941954;29;20023;-84
2023/01/16 08:11:46;;;;;;;3.10;1.40;;;7.50;73.10;;;;;;4972489;28;20037;-85
2023/01/16 08:14:12;;;;;;;7.80;1.73;;;7.60;73.10;;;;;;4975649;28;20022;-84
2023/01/16 08:16:38;;;;;;;6.90;2.08;;;7.80;73.50;;;;;;4958911;29;20059;-85
2023/01/16 08:19:04;;;;;;;5.82;1.67;;;8.00;74.20;;;;;;4958780;29;20083;-84
2023/01/16 08:21:30;;;;;;;4.10;3.05;;;8.00;74.80;;;;;;4958805;29;20841;-85
2023/01/16 08:23:55;;;;;;;7.03;1.60;;;8.00;75.50;;;;;;4958657;28;20663;-84
2023/01/16 08:26:21;;;;;;;2.92;1.33;;;7.90;76.20;;;;;;4958696;29;20066;-85
2023/01/16 08:28:48;;;;;;;2.40;1.23;;;7.90;76.70;;;;;;4941370;29;20019;-84
2023/01/16 08:31:15;;;;;;;5.75;1.58;;;7.80;77.10;;;;;;4973616;28;20405;-83
2023/01/16 08:33:42;;;;;;;4.93;1.63;;;7.70;77.70;;;;;;4960912;28;20389;-83
2023/01/16 08:36:10;;;;;;;3.28;0.80;;;7.60;78.30;;;;;;4960752;28;20031;-84
2023/01/16 08:38:36;;;;;;;5.82;1.35;;;7.50;77.90;;;;;;4941292;29;20129;-83
2023/01/16 08:41:02;;;;;;;0.90;0.85;;;7.50;77.90;;;;;;4958348;29;20469;-83
2023/01/16 08:51:57;;;;;;;2.60;1.30;;;7.50;78.40;;;;;;4978068;28;20134;-84
2023/01/16 08:54:22;;;;;;;4.60;1.30;;;7.40;78.80;;;;;;4951958;29;20027;-83
2023/01/16 08:56:48;;;;;;;1.17;1.08;;;7.50;78.70;;;;;;4958098;28;20070;-83
2023/01/16 08:59:14;;;;;;;5.28;1.40;;;7.50;78.50;;;;;;4958143;29;20050;-83
2023/01/16 09:01:41;;;;;;;2.35;1.30;;;7.70;78.60;;;;;;4958094;28;20034;-85
2023/01/16 09:04:07;;;;;;;3.63;1.10;;;8.00;78.10;;;;;;4957874;28;20023;-83
2023/01/16 09:06:35;;;;;;;1.30;1.20;;;8.00;77.50;;;;;;4957960;28;20020;-82
2023/01/16 09:09:02;;;;;;;3.10;1.33;;;8.00;77.60;;;;;;4940638;28;20501;-83
2023/01/16 09:14:26;;;;;;;1.40;1.30;;;7.90;77.70;;;;;;4933964;28;20039;-83
2023/01/16 09:16:52;;;;;;;2.38;1.73;;;7.80;78.30;;;;;;4973911;28;20093;-84
2023/01/16 09:19:17;;;;;;;4.00;1.55;;;7.80;78.20;;;;;;4959729;28;20027;-84
2023/01/16 09:21:43;;;;;;;2.75;1.27;;;7.90;77.60;;;;;;4958591;29;20058;-83
2023/01/16 09:24:09;;;;;;;4.63;1.13;;;7.90;77.30;;;;;;4958685;28;20058;-84
2023/01/16 09:26:34;;;;;;;1.50;1.10;;;7.80;77.30;;;;;;4962402;28;20042;-83
2023/01/16 09:29:00;;;;;;;1.95;1.67;;;7.90;77.60;;;;;;4960391;28;20115;-83
2023/01/16 09:31:26;;;;;;;1.25;1.10;;;8.00;77.30;;;;;;4957052;28;20055;-84
2023/01/16 09:33:52;;;;;;;1.55;1.42;;;8.30;76.80;;;;;;4958261;29;20058;-84
2023/01/16 09:36:18;;;;;;;3.13;2.92;;;8.50;76.30;;;;;;4943166;28;21078;-84
2023/01/16 09:38:44;;;;;;;5.28;1.35;;;9.30;75.20;;;;;;4958304;29;20074;-84
2023/01/16 09:44:07;;;;;;;2.88;1.73;;;10.20;72.10;;;;;;4929831;28;20047;-84
2023/01/16 09:46:38;;;;;;;5.68;1.75;;;10.60;70.40;;;;;;4959651;28;20027;-84
2023/01/16 09:49:21;;;;;;;2.35;1.30;;;10.80;69.20;;;;;;4961533;29;20086;-84
2023/01/16 10:00:19;;;;;;;3.78;1.10;;;9.50;72.90;;;;;;4979643;28;20053;-84
2023/01/16 10:02:45;;;;;;;6.57;1.70;;;9.30;73.40;;;;;;4980635;28;20042;-85
2023/01/16 10:05:13;;;;;;;3.10;1.10;;;9.20;74.20;;;;;;4980512;28;20058;-84
2023/01/16 10:08:02;;;;;;;3.53;1.10;;;8.90;75.50;;;;;;4965844;28;20504;-83
2023/01/16 10:10:58;;;;;;;3.67;1.37;;;8.80;76.40;;;;;;4947784;28;20038;-84
2023/01/16 10:13:29;;;;;;;3.33;1.00;;;8.60;76.70;;;;;;4979649;28;20022;-84
2023/01/16 10:16:20;;;;;;;6.53;1.50;;;8.50;77.00;;;;;;4980938;28;20023;-84
2023/01/16 10:19:00;;;;;;;6.00;2.20;;;8.40;77.50;;;;;;4979475;28;20035;-84
2023/01/16 10:21:36;;;;;;;6.60;1.52;;;8.60;77.70;;;;;;4980333;28;20034;-84
2023/01/16 10:24:17;;;;;;;3.78;1.60;;;8.70;77.90;;;;;;4970143;28;20075;-84
2023/01/16 10:27:14;;;;;;;8.15;1.40;;;9.10;77.60;;;;;;4961794;29;20085;-84
2023/01/16 10:29:46;;;;;;;3.08;1.30;;;9.30;77.60;;;;;;4961535;29;20035;-84
2023/01/16 10:32:30;;;;;;;2.78;1.58;;;9.60;77.30;;;;;;4960511;28;20130;-84
2023/01/16 10:35:03;;;;;;;5.57;1.30;;;9.50;77.20;;;;;;4960788;28;20047;-85
2023/01/16 10:37:29;;;;;;;3.45;1.00;;;9.40;77.10;;;;;;4960375;28;20042;-85
2023/01/16 10:39:58;;;;;;;3.78;1.23;;;9.50;77.20;;;;;;4960737;29;20027;-85
2023/01/16 10:50:47;;;;;;;3.50;1.23;;;9.80;76.50;;;;;;4968704;28;20037;-84
2023/01/16 10:53:13;;;;;;;3.33;1.40;;;9.70;75.90;;;;;;4979969;28;20042;-84
2023/01/16 10:55:44;;;;;;;4.50;1.42;;;9.50;75.80;;;;;;4961286;28;20028;-85
2023/01/16 10:58:12;;;;;;;2.78;1.27;;;9.60;75.20;;;;;;4960106;28;20035;-85
2023/01/16 11:00:41;;;;;;;3.83;1.45;;;9.60;74.90;;;;;;4960593;28;20113;-86
2023/01/16 11:03:40;;;;;;;3.20;1.38;;;9.60;75.10;;;;;;4958510;28;20122;-86
2023/01/16 11:06:19;;;;;;;2.20;0.98;;;9.70;74.60;;;;;;4944352;28;20098;-85
2023/01/16 11:08:54;;;;;;;1.55;1.45;;;9.70;74.50;;;;;;4965267;28;20023;-85
2023/01/16 11:20:23;;;;;;;3.00;1.20;;;9.70;74.10;;;;;;4973719;28;20121;-86
2023/01/16 11:22:58;;;;;;;4.45;1.42;;;9.50;74.10;;;;;;4959951;29;20042;-85
2023/01/16 11:25:26;;;;;;;1.35;0.93;;;9.50;74.60;;;;;;4959849;28;20027;-86
2023/01/16 11:27:52;;;;;;;6.63;1.42;;;9.70;74.40;;;;;;4959949;29;20402;-85
2023/01/16 11:30:21;;;;;;;3.05;1.33;;;9.70;74.40;;;;;;4942308;29;20047;-86
2023/01/16 11:32:49;;;;;;;5.93;1.40;;;9.70;73.80;;;;;;4960584;28;20066;-85
2023/01/16 11:35:17;;;;;;;7.75;1.35;;;9.70;73.90;;;;;;4942457;29;20035;-86
2023/01/16 11:37:48;;;;;;;3.72;1.00;;;9.50;73.00;;;;;;4959631;29;20027;-86
2023/01/16 11:40:23;;;;;;;3.58;1.10;;;9.30;73.50;;;;;;4969234;28;20038;-85
2023/01/16 11:46:07;;;;;;;4.43;1.20;;;9.20;74.10;;;;;;4970604;28;20173;-84
2023/01/16 11:48:37;;;;;;;4.00;1.70;;;9.20;74.20;;;;;;4959792;29;20050;-85
2023/01/16 11:51:05;;;;;;;1.38;0.95;;;9.20;74.60;;;;;;4959965;29;20024;-86
2023/01/16 11:53:33;;;;;;;6.97;1.40;;;9.30;74.20;;;;;;4943745;28;20049;-86
2023/01/16 11:56:04;;;;;;;6.05;1.35;;;9.30;74.00;;;;;;4963999;28;20035;-86
2023/01/16 11:58:45;;;;;;;3.17;1.60;;;9.30;73.90;;;;;;4959441;29;20027;-86
2023/01/16 12:01:23;;;;;;;3.17;1.58;;;9.40;74.40;;;;;;4959639;29;20039;-85
2023/01/16 12:03:56;;;;;;;1.85;1.20;;;9.50;73.90;;;;;;4947213;28;20571;-85
2023/01/16 12:06:42;;;;;;;2.42;1.50;;;9.50;73.90;;;;;;4979186;28;20398;-86
2023/01/16 12:09:31;;;;;;;2.20;1.13;;;9.50;73.20;;;;;;4963669;28;20114;-85
2023/01/16 12:11:57;;;;;;;4.53;1.42;;;9.60;73.60;;;;;;4974337;28;20034;-85
2023/01/16 12:14:30;;;;;;;2.70;1.05;;;9.60;73.60;;;;;;4956968;29;20114;-85
2023/01/16 12:17:02;;;;;;;1.40;1.02;;;9.70;73.40;;;;;;4958898;29;20035;-85
2023/01/16 12:19:43;;;;;;;2.72;1.20;;;9.70;73.30;;;;;;4958918;29;20158;-85
2023/01/16 12:22:11;;;;;;;1.48;1.15;;;9.50;73.50;;;;;;4958889;29;20042;-85
2023/01/16 12:24:49;;;;;;;6.22;1.33;;;9.60;73.40;;;;;;4958878;28;20034;-85
2023/01/16 12:27:40;;;;;;;2.67;1.27;;;9.60;72.90;;;;;;4958768;29;20035;-85
2023/01/16 12:30:53;;;;;;;4.03;1.60;;;9.70;72.90;;;;;;4958706;29;20038;-84
2023/01/16 12:33:52;;;;;;;6.38;2.13;;;9.70;72.50;;;;;;4958649;28;20035;-85
2023/01/16 12:36:36;;;;;;;7.32;1.48;;;9.80;72.40;;;;;;4958457;29;20024;-85
2023/01/16 12:39:18;;;;;;;3.13;1.38;;;9.80;72.40;;;;;;4959054;28;20553;-85
2023/01/16 12:45:13;;;;;;;4.63;1.10;;;10.00;71.40;;;;;;4959316;29;20260;-86
2023/01/16 12:48:07;;;;;;;3.47;1.33;;;10.30;71.50;;;;;;4958427;29;20035;-87
2023/01/16 12:50:43;;;;;;;4.15;1.33;;;10.60;70.10;;;;;;4958762;29;20030;-85
2023/01/16 12:53:21;;;;;;;3.50;0.95;;;10.80;69.40;;;;;;4958778;28;20481;-85
2023/01/16 12:56:25;;;;;;;2.10;1.23;;;10.80;69.20;;;;;;4978009;28;20027;-86
2023/01/16 12:58:57;;;;;;;3.92;1.55;;;11.00;69.60;;;;;;4958060;28;20035;-86
2023/01/16 13:01:26;;;;;;;3.00;1.20;;;11.10;68.50;;;;;;4958142;28;20027;-86
2023/01/16 13:04:12;;;;;;;3.90;1.20;;;10.90;68.00;;;;;;4960371;28;20113;-85
2023/01/16 13:06:53;;;;;;;1.75;1.02;;;10.60;69.50;;;;;;4958043;29;20063;-85
2023/01/16 13:09:40;;;;;;;1.92;0.98;;;10.20;69.70;;;;;;4958268;28;20039;-85
2023/01/16 13:15:12;;;;;;;5.10;1.45;;;10.10;70.90;;;;;;4974591;28;20170;-86
2023/01/16 13:17:51;;;;;;;12.02;1.80;;;10.30;71.30;;;;;;4940496;29;20070;-85
2023/01/16 13:20:20;;;;;;;6.00;1.83;;;10.50;71.10;;;;;;4957572;28;20030;-86
2023/01/16 13:22:49;;;;;;;3.95;1.40;;;10.60;71.10;;;;;;4976757;28;20031;-86
2023/01/16 13:25:18;;;;;;;6.82;1.20;;;10.70;70.80;;;;;;4956635;28;20023;-86
2023/01/16 13:27:55;;;;;;;4.82;1.30;;;10.80;71.00;;;;;;4960048;28;20593;-86
2023/01/16 13:30:20;;;;;;;1.45;0.80;;;10.70;69.90;;;;;;4957761;28;20023;-87
2023/01/16 13:32:49;;;;;;;3.80;1.20;;;10.70;70.00;;;;;;4957895;28;20119;-86
2023/01/16 13:35:30;;;;;;;5.30;1.10;;;10.70;70.40;;;;;;4958111;29;20059;-86
2023/01/16 13:38:35;;;;;;;3.65;1.25;;;10.70;68.60;;;;;;4940484;29;20031;-85
2023/01/16 13:41:14;;;;;;;2.13;1.20;;;10.70;69.10;;;;;;4940920;29;20039;-85
2023/01/16 13:46:37;;;;;;;7.88;1.35;;;10.60;68.60;;;;;;4958072;29;20106;-85
2023/01/16 13:49:05;;;;;;;3.08;1.20;;;10.40;68.60;;;;;;4970317;28;20027;-85
2023/01/16 13:51:41;;;;;;;3.15;1.45;;;10.20;69.20;;;;;;4953735;29;20023;-85
2023/01/16 13:54:14;;;;;;;3.83;1.48;;;10.10;70.20;;;;;;4950310;28;20047;-85
2023/01/16 13:56:40;;;;;;;2.67;1.38;;;10.10;71.20;;;;;;4976862;28;20026;-84
2023/01/16 13:59:31;;;;;;;3.53;1.55;;;10.20;71.10;;;;;;4976742;28;20117;-84
2023/01/16 14:01:57;;;;;;;2.58;1.40;;;10.30;71.50;;;;;;4971195;28;20104;-85
2023/01/16 14:04:23;;;;;;;4.15;1.35;;;10.30;71.30;;;;;;4956920;28;20032;-85
2023/01/16 14:10:16;;;;;;;6.18;1.30;;;10.30;70.40;;;;;;4957768;29;20050;-84
2023/01/16 14:13:23;;;;;;;2.65;1.52;;;10.30;69.60;;;;;;4957232;28;20034;-85
2023/01/16 14:18:42;;;;;;;4.63;1.23;;;10.40;69.40;;;;;;4958148;29;20054;-85
2023/01/16 14:21:21;;;;;;;2.35;1.10;;;10.60;69.70;;;;;;4940713;29;20109;-86
2023/01/16 14:24:02;;;;;;;1.35;0.95;;;10.50;67.90;;;;;;4957892;28;20031;-85
2023/01/16 14:26:43;;;;;;;2.40;1.20;;;10.50;68.50;;;;;;4939939;29;20373;-86
2023/01/16 14:29:33;;;;;;;3.65;1.40;;;10.40;67.70;;;;;;4957413;29;20055;-85
2023/01/16 14:32:25;;;;;;;4.25;1.17;;;10.40;68.80;;;;;;4957522;28;20047;-85
2023/01/16 14:35:09;;;;;;;3.90;1.30;;;10.40;69.30;;;;;;4961066;28;20031;-85
2023/01/16 14:37:43;;;;;;;1.80;1.30;;;10.30;68.60;;;;;;4961202;29;20015;-84
2023/01/16 14:40:08;;;;;;;1.50;0.80;;;10.30;68.10;;;;;;4960698;29;20027;-85
2023/01/16 14:57:29;;;;;;;1.60;1.17;;;10.20;66.20;;;;;;4972184;28;20074;-85
2023/01/16 15:00:14;;;;;;;1.17;0.90;;;10.20;66.40;;;;;;4943118;29;20031;-85
2023/01/16 15:03:16;;;;;;;2.83;1.40;;;10.20;66.70;;;;;;4960132;28;20027;-85
2023/01/16 15:05:55;;;;;;;1.98;1.20;;;10.30;66.80;;;;;;4956105;29;20513;-85
2023/01/16 15:08:23;;;;;;;1.80;1.07;;;10.30;67.40;;;;;;4960825;29;20114;-85
2023/01/16 15:10:52;;;;;;;2.25;0.90;;;10.30;67.40;;;;;;4943489;29;20435;-85
2023/01/16 15:21:56;;;;;;;2.67;0.90;;;10.30;67.00;;;;;;4960260;29;20082;-85
2023/01/16 15:22:25;;;;;;;2.35;1.30;;;10.00;67.50;;;;;;4960576;28;20050;-84
2023/01/16 15:25:00;;;;;;;1.45;0.95;;;9.90;68.00;;;;;;4960465;29;20106;-85
2023/01/16 15:27:33;;;;;;;3.75;1.48;;;9.80;68.10;;;;;;4942769;29;20218;-84
2023/01/16 15:30:05;;;;;;;4.43;1.70;;;9.70;67.80;;;;;;4961371;28;20062;-84
2023/01/16 15:32:52;;;;;;;3.20;1.23;;;9.70;67.90;;;;;;4969045;28;20053;-84
2023/01/16 15:35:18;;;;;;;2.42;1.20;;;9.70;68.50;;;;;;4942304;29;20037;-84
2023/01/16 15:37:52;;;;;;;1.88;1.25;;;9.60;68.70;;;;;;4959854;28;20035;-84
2023/01/16 15:40:51;;;;;;;1.55;0.90;;;9.60;67.90;;;;;;4959596;29;20398;-83
2023/01/16 15:49:01;;;;;;;4.82;1.48;;;9.40;68.90;;;;;;4970352;28;20046;-84
2023/01/16 15:51:27;;;;;;;2.92;1.77;;;9.30;69.70;;;;;;4961281;28;20023;-84
2023/01/16 15:53:57;;;;;;;2.88;1.27;;;9.30;70.10;;;;;;4974539;28;20067;-84
2023/01/16 15:56:39;;;;;;;5.40;1.90;;;9.20;69.90;;;;;;4976642;28;20028;-85
2023/01/16 15:59:27;;;;;;;4.60;1.58;;;9.10;70.60;;;;;;4959662;29;20110;-84
2023/01/16 16:01:53;;;;;;;2.60;1.40;;;9.10;70.50;;;;;;4959722;28;20525;-84
2023/01/16 16:04:21;;;;;;;2.15;1.42;;;9.00;71.10;;;;;;4959278;28;20039;-84
2023/01/16 16:06:47;;;;;;;2.90;1.77;;;9.00;71.00;;;;;;4959172;29;20110;-84
2023/01/16 16:09:19;;;;;;;4.57;1.50;;;9.00;71.00;;;;;;4959596;28;20035;-84
2023/01/16 16:11:55;;;;;;;2.53;1.55;;;9.00;71.10;;;;;;4956589;28;20516;-84
2023/01/16 16:20:34;;;;;;;6.25;1.52;;;8.90;71.70;;;;;;4959004;29;20536;-83
2023/01/16 16:23:21;;;;;;;3.53;1.63;;;8.80;71.60;;;;;;4958940;28;20027;-83
2023/01/16 16:26:03;;;;;;;2.13;1.42;;;8.70;71.50;;;;;;4941266;29;20434;-83
2023/01/16 16:28:32;;;;;;;7.20;1.40;;;8.70;71.30;;;;;;4958772;29;20371;-83
2023/01/16 16:31:02;;;;;;;3.75;1.30;;;8.70;71.40;;;;;;4940950;29;20537;-84
2023/01/16 16:33:29;;;;;;;2.83;1.27;;;8.60;71.30;;;;;;4958965;28;20035;-82
2023/01/16 16:35:57;;;;;;;3.20;1.60;;;8.60;71.30;;;;;;4964460;28;20027;-83
2023/01/16 16:38:31;;;;;;;2.38;1.50;;;8.50;71.50;;;;;;4958501;28;20039;-84
2023/01/16 16:41:08;;;;;;;2.28;1.50;;;8.50;71.60;;;;;;4958430;29;20401;-84
2023/01/16 16:44:08;;;;;;;1.70;1.60;;;8.50;71.90;;;;;;4958546;29;20114;-83
2023/01/16 16:46:38;;;;;;;3.03;1.10;;;8.30;72.00;;;;;;4941059;29;20035;-83
2023/01/16 16:49:16;;;;;;;;;;;8.30;71.80;;;;;;4956702;28;20034;-85
2023/01/16 16:51:43;;;;;;;1.30;1.20;;;8.30;72.20;;;;;;4960482;28;20699;-78
2023/01/16 16:54:17;;;;;;;2.83;1.90;;;8.20;72.00;;;;;;4970778;28;20027;-79
2023/01/16 16:56:47;;;;;;;2.53;1.60;;;8.20;72.30;;;;;;4962831;28;20034;-78
2023/01/16 16:59:25;;;;;;;2.00;1.60;;;8.20;72.50;;;;;;4952011;28;20034;-81
2023/01/16 17:01:55;;;;;;;4.95;1.98;;;8.20;72.50;;;;;;4971152;28;20038;-80
2023/01/16 17:04:21;;;;;;;2.35;1.63;;;8.10;73.00;;;;;;4960931;28;20110;-79
2023/01/16 17:06:51;;;;;;;2.08;1.80;;;8.00;72.80;;;;;;4940762;29;20046;-80
2023/01/16 17:09:17;;;;;;;1.65;1.42;;;8.00;72.90;;;;;;4957940;29;20115;-79
2023/01/16 17:11:46;;;;;;;2.47;1.50;;;8.00;73.10;;;;;;4959899;28;20406;-79
2023/01/16 17:14:21;;;;;;;5.63;1.50;;;8.00;72.90;;;;;;4958021;29;20032;-81
2023/01/16 17:16:47;;;;;;;2.95;1.80;;;7.90;72.80;;;;;;4957666;29;20031;-82
2023/01/16 17:19:19;;;;;;;3.40;1.42;;;7.80;73.70;;;;;;4925328;28;20023;-80
2023/01/16 17:21:45;;;;;;;4.03;2.00;;;7.80;73.50;;;;;;4956724;29;20116;-82
2023/01/16 17:24:19;;;;;;;2.35;1.80;;;7.80;73.60;;;;;;4940635;29;20549;-78
2023/01/16 17:26:45;;;;;;;3.25;1.92;;;7.80;73.50;;;;;;4943323;28;20615;-76
2023/01/16 17:29:11;;;;;;;2.10;1.92;;;7.70;73.60;;;;;;4950218;28;20074;-79
2023/01/16 17:31:41;;;;;;;4.75;3.05;;;7.70;74.00;;;;;;4964435;28;20051;-75
2023/01/16 17:34:14;;;;;;;4.30;2.70;;;7.70;73.60;;;;;;4966385;28;20045;-75
2023/01/16 17:36:40;;;;;;;6.40;3.40;;;7.70;74.00;;;;;;4964823;28;20020;-76
2023/01/16 17:39:06;;;;;;;5.40;3.08;;;7.70;73.90;;;;;;4966452;28;20043;-74
2023/01/16 17:47:00;;;;;;;4.53;2.50;;;7.50;74.40;;;;;;4947423;28;20050;-75
2023/01/16 17:49:25;;;;;;;2.90;2.50;;;7.50;74.40;;;;;;4959435;28;20024;-76
2023/01/16 17:51:51;;;;;;;3.58;3.10;;;7.50;74.30;;;;;;4957278;28;20039;-75
2023/01/16 17:57:01;;;;;;;5.63;3.42;;;7.40;74.40;;;;;;4929815;28;20090;-76
2023/01/16 17:59:29;;;;;;;8.88;4.68;;;7.40;74.80;;;;;;4967951;28;20039;-76
2023/01/16 18:01:55;;;;;;;9.07;5.18;;;7.40;74.60;;;;;;4946651;28;20038;-75
2023/01/16 18:04:20;;;;;;;11.55;6.38;;;7.30;74.40;;;;;;4966550;28;20027;-74
2023/01/16 18:06:46;;;;;;;9.80;4.90;;;7.30;74.70;;;;;;4943028;29;20549;-78
2023/01/16 18:09:14;;;;;;;16.50;6.78;;;7.30;74.60;;;;;;4963164;28;20510;-75
2023/01/16 18:17:26;;;;;;;10.80;5.53;;;7.20;74.90;;;;;;4965811;28;20042;-78
2023/01/16 18:20:01;;;;;;;8.07;5.43;;;7.20;74.70;;;;;;4962448;28;20058;-75
2023/01/16 18:22:36;;;;;;;7.70;4.70;;;7.20;74.90;;;;;;4966169;28;20043;-77
2023/01/16 18:25:03;;;;;;;7.72;4.28;;;7.20;74.90;;;;;;4964312;28;20023;-78
2023/01/16 18:27:29;;;;;;;5.55;3.95;;;7.20;74.80;;;;;;4947538;29;20610;-78
2023/01/16 18:29:55;;;;;;;6.68;4.47;;;7.10;74.90;;;;;;4974072;28;20102;-75
2023/01/16 18:32:31;;;;;;;9.13;4.47;;;7.10;74.90;;;;;;4963237;28;20055;-76
2023/01/16 18:35:00;;;;;;;7.80;5.57;;;7.00;75.00;;;;;;4968461;28;20034;-78
2023/01/16 18:37:33;;;;;;;6.68;4.97;;;7.00;75.20;;;;;;4950849;29;20113;-80
2023/01/16 19:02:12;;;;;;;5.53;4.80;;;6.70;76.00;;;;;;4964436;28;20066;-76
2023/01/16 19:04:38;;;;;;;9.63;5.53;;;6.70;76.20;;;;;;4962026;28;20030;-77
2023/01/16 19:07:26;;;;;;;10.30;5.93;;;6.70;76.20;;;;;;4961191;28;20554;-78
2023/01/16 19:09:56;;;;;;;8.05;5.10;;;6.60;76.30;;;;;;4959090;28;20034;-76
2023/01/16 19:12:24;;;;;;;11.25;5.40;;;6.60;76.30;;;;;;4972409;28;20034;-79
2023/01/16 19:14:51;;;;;;;21.13;7.60;;;6.50;76.30;;;;;;4967373;28;20046;-79
2023/01/16 19:17:17;;;;;;;12.63;7.10;;;6.50;76.60;;;;;;4942224;29;20047;-79
2023/01/16 19:19:43;;;;;;;12.77;8.02;;;6.40;76.90;;;;;;4953673;28;20190;-85
2023/01/16 19:22:09;;;;;;;16.85;8.48;;;6.40;76.90;;;;;;4961939;28;20035;-77
2023/01/16 19:24:36;;;;;;;14.27;7.93;;;6.40;77.00;;;;;;4967180;28;20031;-79
2023/01/16 19:27:02;;;;;;;12.88;7.57;;;6.50;77.00;;;;;;4948820;28;20034;-77
2023/01/16 19:29:28;;;;;;;13.63;8.43;;;6.40;76.80;;;;;;4954299;28;20090;-77
2023/01/16 19:31:55;;;;;;;16.33;8.50;;;6.50;76.60;;;;;;4968853;28;20039;-77
2023/01/16 19:34:25;;;;;;;13.73;8.70;;;6.50;76.70;;;;;;4962203;28;20033;-77
2023/01/16 19:36:51;;;;;;;12.98;8.18;;;6.50;76.60;;;;;;4965766;28;20118;-76
2023/01/16 19:39:17;;;;;;;15.27;7.65;;;6.40;76.50;;;;;;4964889;28;20035;-76
2023/01/16 19:47:12;;;;;;;12.63;7.30;;;6.30;76.60;;;;;;4965759;28;20045;-76
2023/01/16 19:49:40;;;;;;;17.67;9.00;;;6.30;76.70;;;;;;4940751;28;20023;-78
2023/01/16 19:52:06;;;;;;;18.08;9.85;;;6.20;77.00;;;;;;4945438;28;20460;-76
2023/01/16 19:54:32;;;;;;;17.83;10.05;;;6.20;77.10;;;;;;4968877;28;20087;-78
2023/01/16 19:56:58;;;;;;;11.93;8.25;;;6.20;77.20;;;;;;4940851;28;20506;-78
2023/01/16 19:59:24;;;;;;;13.02;8.60;;;6.10;77.30;;;;;;4941820;28;20533;-78
2023/01/16 20:02:00;;;;;;;12.32;7.40;;;6.10;77.30;;;;;;4959606;28;20031;-77
2023/01/16 20:04:27;;;;;;;13.35;7.30;;;6.10;77.20;;;;;;4962106;28;20512;-76
2023/01/16 20:06:54;;;;;;;8.32;7.32;;;6.10;77.10;;;;;;4959232;28;20082;-79
2023/01/16 20:09:23;;;;;;;9.27;5.82;;;6.10;77.20;;;;;;4922651;28;20046;-79
2023/01/16 20:14:33;;;;;;;16.02;8.38;;;6.00;77.30;;;;;;4959548;28;20030;-79
2023/01/16 20:16:59;;;;;;;14.63;8.80;;;6.00;77.60;;;;;;4961723;28;20035;-79
2023/01/16 20:19:28;;;;;;;20.52;9.07;;;6.00;77.40;;;;;;4940545;28;20514;-79
2023/01/16 20:21:54;;;;;;;13.43;6.55;;;6.00;76.90;;;;;;4962132;28;20019;-79
2023/01/16 20:24:21;;;;;;;13.20;6.05;;;6.00;77.50;;;;;;4959605;28;20053;-79
2023/01/16 20:26:49;;;;;;;14.77;7.03;;;5.90;77.90;;;;;;4958743;28;20054;-79
2023/01/16 20:29:17;;;;;;;10.32;5.80;;;6.00;77.80;;;;;;4942582;28;20446;-78
2023/01/16 20:31:43;;;;;;;10.07;7.35;;;6.00;77.80;;;;;;4951304;28;20046;-79
2023/01/16 20:34:08;;;;;;;18.88;9.27;;;6.00;77.60;;;;;;4968770;28;20023;-79
2023/01/16 20:36:34;;;;;;;13.27;9.23;;;6.00;77.80;;;;;;4973001;28;20026;-78
2023/01/16 20:39:00;;;;;;;16.55;10.25;;;6.00;77.90;;;;;;4961385;28;20045;-79
2023/01/16 20:47:08;;;;;;;14.85;10.52;;;6.00;77.60;;;;;;4961236;28;20046;-77
2023/01/16 20:49:34;;;;;;;17.80;10.20;;;6.00;77.70;;;;;;4955236;28;20505;-78
2023/01/16 20:52:00;;;;;;;16.73;10.32;;;6.00;77.60;;;;;;4957593;28;20031;-78
2023/01/16 20:54:26;;;;;;;19.52;12.13;;;5.90;77.60;;;;;;4955844;28;20576;-80
2023/01/16 20:56:56;;;;;;;18.85;11.65;;;5.90;77.50;;;;;;4969925;28;20537;-78
2023/01/16 20:59:23;;;;;;;28.67;17.02;;;5.90;77.60;;;;;;4945669;28;20034;-78
2023/01/16 21:01:49;;;;;;;25.92;17.10;;;5.80;77.80;;;;;;4956561;28;20506;-78
2023/01/16 21:04:16;;;;;;;23.00;15.10;;;5.80;78.00;;;;;;4968884;28;20464;-78
2023/01/16 21:06:43;;;;;;;30.88;19.70;;;5.80;78.00;;;;;;4950223;28;20034;-78
2023/01/16 21:09:10;;;;;;;28.25;16.20;;;5.80;77.90;;;;;;4957119;28;20027;-78
2023/01/16 21:14:20;;;;;;;24.02;14.25;;;5.70;78.30;;;;;;4975655;28;20029;-78
2023/01/16 21:22:22;;;;;;;18.33;12.32;;;5.70;78.30;;;;;;4955326;28;20023;-78